Edwardsville, Illinois
Current Conditions -  °F | °C
As of 3:35 AM on Friday 28 Nov 2014 (Local Time) from KALN Reporting Station
Scattered Clouds Scattered Clouds  
Wind Chill: 16°   Ceiling: Unl
Heat Index: 24°   Visibility: 10mi
Dew Point: 19°   Wind: 7mph
Humidity: 82%   Direction: 110°ESE
Pressure: 30.36"   Gusts: NA
Location:  38.81°N, 89.96°W
Report Text: KALN 280935Z AUTO 11006KT 10SM SCT065 M05/M07 A3036 RMK AO2 T10461072
Loading
Personal Weather Stations






























Interactive Weather Map New forecast layout! Learn more

10-Day Weather Forecast

Advertisements
Track Severe Weather on mobile